PWSweather.com
Personal Weather Stations
Station Observations
PICKERING
North Yorkshire, PickeringGB

North YorkshirePickeringGB

Lat: 54.2494, Lon: -0.7725

Elevation: 192

Station Type: Oregon Scientific WMR100

http://www.yorkshirewalker.co.uk/weather/

High Low Average
Temperature 87.8°F31.0°C 52.2°F11.2°C 68.0°F20.0°C
Dew Point 60.8°F16.0°C 42.8°F6.0°C 49.4°F9.7°C
Winds 9.8 mph 15.8 kmh Calm Calm 4.0 mph E6.4 kmh E
Wind Gusts 14.8 mph23.8 kmh -- 7.0 mph11.3 kmh
Humidity 77% 29% 54%
Pressure 29.89 in1012.2 mb 29.83 in1010.2 mb -
Precipitation 0.00 in0.0 mm - -
Hour Temp Dew Point Humidity Winds Wind Gusts Pressure Precip Precip Rate Daily Precip Total
12:00 AM 54.0°F12.2°C 42.8°F6.0°C 67% 0.1 mph NE0.2 kmh NE 0.9 mph1.4 kmh 29.89 in1012.2 mb 0.00 in0.0 mm 0.00 in0.0 mm 0.00 in0.0 mm
12:05 AM 53.8°F12.1°C 42.8°F6.0°C 67% 0.1 mph ENE0.2 kmh ENE 0.9 mph1.4 kmh 29.89 in1012.2 mb 0.00 in0.0 mm 0.00 in0.0 mm 0.00 in0.0 mm
12:10 AM 53.8°F12.1°C 42.8°F6.0°C 67% 0.4 mph NE0.6 kmh NE 1.6 mph2.6 kmh 29.89 in1012.2 mb 0.00 in0.0 mm 0.00 in0.0 mm 0.00 in0.0 mm
12:15 AM 53.4°F11.9°C 42.8°F6.0°C 67% 1.1 mph NE1.8 kmh NE 2.9 mph4.7 kmh 29.89 in1012.2 mb 0.00 in0.0 mm 0.00 in0.0 mm 0.00 in0.0 mm
12:20 AM 53.4°F11.9°C 42.8°F6.0°C 67% 2.0 mph NE3.2 kmh NE 3.4 mph5.5 kmh 29.89 in1012.2 mb 0.00 in0.0 mm 0.00 in0.0 mm 0.00 in0.0 mm
12:25 AM 53.6°F12.0°C 42.8°F6.0°C 67% 2.3 mph NE3.7 kmh NE 3.4 mph5.5 kmh 29.89 in1012.2 mb 0.00 in0.0 mm 0.00 in0.0 mm 0.00 in0.0 mm
12:30 AM 53.6°F12.0°C 44.6°F7.0°C 68% 2.0 mph NE3.2 kmh NE 2.7 mph4.3 kmh 29.89 in1012.2 mb 0.00 in0.0 mm 0.00 in0.0 mm 0.00 in0.0 mm
12:35 AM 53.6°F12.0°C 42.8°F6.0°C 67% 2.1 mph NE3.4 kmh NE 2.7 mph4.3 kmh 29.89 in1012.2 mb 0.00 in0.0 mm 0.00 in0.0 mm 0.00 in0.0 mm
12:40 AM 53.6°F12.0°C 42.8°F6.0°C 67% 2.1 mph NNE3.4 kmh NNE 3.1 mph5.0 kmh 29.89 in1012.2 mb 0.00 in0.0 mm 0.00 in0.0 mm 0.00 in0.0 mm
12:45 AM 53.4°F11.9°C 42.8°F6.0°C 68% 1.6 mph NNE2.6 kmh NNE 3.1 mph5.0 kmh 29.89 in1012.2 mb 0.00 in0.0 mm 0.00 in0.0 mm 0.00 in0.0 mm
12:50 AM 53.2°F11.8°C 42.8°F6.0°C 68% 0.6 mph NE1.0 kmh NE 1.3 mph2.1 kmh 29.89 in1012.2 mb 0.00 in0.0 mm 0.00 in0.0 mm 0.00 in0.0 mm
12:55 AM 53.2°F11.8°C 42.8°F6.0°C 68% 0.9 mph NE1.4 kmh NE 2.5 mph4.0 kmh 29.89 in1012.2 mb 0.00 in0.0 mm 0.00 in0.0 mm 0.00 in0.0 mm
01:00 AM 53.2°F11.8°C 42.8°F6.0°C 68% 1.8 mph NE2.9 kmh NE 2.9 mph4.7 kmh 29.89 in1012.2 mb 0.00 in0.0 mm 0.00 in0.0 mm 0.00 in0.0 mm
01:05 AM 52.9°F11.6°C 42.8°F6.0°C 68% 1.6 mph NNE2.6 kmh NNE 2.9 mph4.7 kmh 29.89 in1012.2 mb 0.00 in0.0 mm 0.00 in0.0 mm 0.00 in0.0 mm
01:10 AM 52.9°F11.6°C 42.8°F6.0°C 68% 1.7 mph NNE2.7 kmh NNE 2.9 mph4.7 kmh 29.89 in1012.2 mb 0.00 in0.0 mm 0.00 in0.0 mm 0.00 in0.0 mm
01:15 AM 52.7°F11.5°C 42.8°F6.0°C 68% 1.4 mph NE2.3 kmh NE 2.7 mph4.3 kmh 29.89 in1012.2 mb 0.00 in0.0 mm 0.00 in0.0 mm 0.00 in0.0 mm
01:20 AM 52.7°F11.5°C 42.8°F6.0°C 68% 1.8 mph NE2.9 kmh NE 3.8 mph6.1 kmh 29.89 in1012.2 mb 0.00 in0.0 mm 0.00 in0.0 mm 0.00 in0.0 mm
01:25 AM 52.9°F11.6°C 42.8°F6.0°C 69% 2.8 mph NE4.5 kmh NE 3.8 mph6.1 kmh 29.89 in1012.2 mb 0.00 in0.0 mm 0.00 in0.0 mm 0.00 in0.0 mm
01:30 AM 52.5°F11.4°C 42.8°F6.0°C 69% 3.1 mph NE5.0 kmh NE 4.0 mph6.4 kmh 29.89 in1012.2 mb 0.00 in0.0 mm 0.00 in0.0 mm 0.00 in0.0 mm
01:35 AM 52.9°F11.6°C 42.8°F6.0°C 70% 3.3 mph NE5.3 kmh NE 4.3 mph6.9 kmh 29.89 in1012.2 mb 0.00 in0.0 mm 0.00 in0.0 mm 0.00 in0.0 mm
01:40 AM 52.9°F11.6°C 42.8°F6.0°C 70% 3.2 mph NE5.1 kmh NE 4.3 mph6.9 kmh 29.89 in1012.2 mb 0.00 in0.0 mm 0.00 in0.0 mm 0.00 in0.0 mm
01:45 AM 52.9°F11.6°C 42.8°F6.0°C 70% 2.4 mph NE3.9 kmh NE 3.1 mph5.0 kmh 29.89 in1012.2 mb 0.00 in0.0 mm 0.00 in0.0 mm 0.00 in0.0 mm
01:50 AM 52.9°F11.6°C 42.8°F6.0°C 70% 2.2 mph NE3.5 kmh NE 3.1 mph5.0 kmh 29.89 in1012.2 mb 0.00 in0.0 mm 0.00 in0.0 mm 0.00 in0.0 mm
01:55 AM 52.9°F11.6°C 42.8°F6.0°C 70% 3.0 mph NE4.8 kmh NE 4.0 mph6.4 kmh 29.89 in1012.2 mb 0.00 in0.0 mm 0.00 in0.0 mm 0.00 in0.0 mm
02:00 AM 53.1°F11.7°C 42.8°F6.0°C 70% 3.5 mph NE5.6 kmh NE 4.3 mph6.9 kmh 29.89 in1012.2 mb 0.00 in0.0 mm 0.00 in0.0 mm 0.00 in0.0 mm
02:05 AM 53.1°F11.7°C 44.6°F7.0°C 71% 4.5 mph NE7.2 kmh NE 7.2 mph11.6 kmh 29.86 in1011.2 mb 0.00 in0.0 mm 0.00 in0.0 mm 0.00 in0.0 mm
02:10 AM 53.2°F11.8°C 44.6°F7.0°C 71% 4.9 mph NE7.9 kmh NE 7.2 mph11.6 kmh 29.86 in1011.2 mb 0.00 in0.0 mm 0.00 in0.0 mm 0.00 in0.0 mm
02:15 AM 53.2°F11.8°C 44.6°F7.0°C 72% 3.6 mph NE5.8 kmh NE 6.0 mph9.7 kmh 29.86 in1011.2 mb 0.00 in0.0 mm 0.00 in0.0 mm 0.00 in0.0 mm
02:20 AM 53.1°F11.7°C 44.6°F7.0°C 72% 1.6 mph NE2.6 kmh NE 5.8 mph9.3 kmh 29.86 in1011.2 mb 0.00 in0.0 mm 0.00 in0.0 mm 0.00 in0.0 mm
02:25 AM 52.9°F11.6°C 44.6°F7.0°C 72% 0.6 mph NNE1.0 kmh NNE 2.9 mph4.7 kmh 29.86 in1011.2 mb 0.00 in0.0 mm 0.00 in0.0 mm 0.00 in0.0 mm
02:30 AM 52.7°F11.5°C 44.6°F7.0°C 71% 0.3 mph NE0.5 kmh NE 1.3 mph2.1 kmh 29.86 in1011.2 mb 0.00 in0.0 mm 0.00 in0.0 mm 0.00 in0.0 mm
02:35 AM 52.7°F11.5°C 44.6°F7.0°C 71% 0.1 mph ESE0.2 kmh ESE 0.9 mph1.4 kmh 29.86 in1011.2 mb 0.00 in0.0 mm 0.00 in0.0 mm 0.00 in0.0 mm
02:40 AM 52.5°F11.4°C 42.8°F6.0°C 71% Calm Calm -- 29.86 in1011.2 mb 0.00 in0.0 mm 0.00 in0.0 mm 0.00 in0.0 mm
02:45 AM 52.5°F11.4°C 42.8°F6.0°C 71% Calm Calm -- 29.86 in1011.2 mb 0.00 in0.0 mm 0.00 in0.0 mm 0.00 in0.0 mm
02:50 AM 52.3°F11.3°C 42.8°F6.0°C 71% 0.3 mph NE0.5 kmh NE 1.1 mph1.8 kmh 29.86 in1011.2 mb 0.00 in0.0 mm 0.00 in0.0 mm 0.00 in0.0 mm
02:55 AM 52.2°F11.2°C 42.8°F6.0°C 71% 0.8 mph NE1.3 kmh NE 1.6 mph2.6 kmh 29.86 in1011.2 mb 0.00 in0.0 mm 0.00 in0.0 mm 0.00 in0.0 mm
03:00 AM 52.7°F11.5°C 44.6°F7.0°C 72% 1.4 mph NE2.3 kmh NE 2.9 mph4.7 kmh 29.86 in1011.2 mb 0.00 in0.0 mm 0.00 in0.0 mm 0.00 in0.0 mm
03:05 AM 52.7°F11.5°C 44.6°F7.0°C 73% 2.4 mph NE3.9 kmh NE 4.0 mph6.4 kmh 29.86 in1011.2 mb 0.00 in0.0 mm 0.00 in0.0 mm 0.00 in0.0 mm
03:10 AM 52.9°F11.6°C 44.6°F7.0°C 74% 3.2 mph NE5.1 kmh NE 4.0 mph6.4 kmh 29.86 in1011.2 mb 0.00 in0.0 mm 0.00 in0.0 mm 0.00 in0.0 mm
03:15 AM 52.9°F11.6°C 44.6°F7.0°C 74% 2.9 mph NE4.7 kmh NE 3.8 mph6.1 kmh 29.86 in1011.2 mb 0.00 in0.0 mm 0.00 in0.0 mm 0.00 in0.0 mm
03:20 AM 53.2°F11.8°C 44.6°F7.0°C 74% 2.8 mph NE4.5 kmh NE 3.6 mph5.8 kmh 29.86 in1011.2 mb 0.00 in0.0 mm 0.00 in0.0 mm 0.00 in0.0 mm
03:25 AM 53.4°F11.9°C 46.4°F8.0°C 74% 3.3 mph NE5.3 kmh NE 4.9 mph7.9 kmh 29.86 in1011.2 mb 0.00 in0.0 mm 0.00 in0.0 mm 0.00 in0.0 mm
03:30 AM 53.6°F12.0°C 46.4°F8.0°C 75% 3.3 mph NE5.3 kmh NE 4.9 mph7.9 kmh 29.86 in1011.2 mb 0.00 in0.0 mm 0.00 in0.0 mm 0.00 in0.0 mm
03:35 AM 53.6°F12.0°C 46.4°F8.0°C 75% 3.9 mph NE6.3 kmh NE 6.0 mph9.7 kmh 29.86 in1011.2 mb 0.00 in0.0 mm 0.00 in0.0 mm 0.00 in0.0 mm
03:40 AM 53.8°F12.1°C 46.4°F8.0°C 75% 4.8 mph NE7.7 kmh NE 6.3 mph10.1 kmh 29.86 in1011.2 mb 0.00 in0.0 mm 0.00 in0.0 mm 0.00 in0.0 mm
03:45 AM 54.0°F12.2°C 46.4°F8.0°C 75% 4.8 mph NE7.7 kmh NE 6.3 mph10.1 kmh 29.86 in1011.2 mb 0.00 in0.0 mm 0.00 in0.0 mm 0.00 in0.0 mm
03:50 AM 54.0°F12.2°C 46.4°F8.0°C 75% 4.6 mph NE7.4 kmh NE 5.4 mph8.7 kmh 29.86 in1011.2 mb 0.00 in0.0 mm 0.00 in0.0 mm 0.00 in0.0 mm
03:55 AM 54.0°F12.2°C 46.4°F8.0°C 75% 5.2 mph NE8.4 kmh NE 6.7 mph10.8 kmh 29.86 in1011.2 mb 0.00 in0.0 mm 0.00 in0.0 mm 0.00 in0.0 mm
04:00 AM 54.0°F12.2°C 46.4°F8.0°C 75% 5.4 mph NE8.7 kmh NE 8.5 mph13.7 kmh 29.86 in1011.2 mb 0.00 in0.0 mm 0.00 in0.0 mm 0.00 in0.0 mm
04:05 AM 54.1°F12.3°C 48.2°F9.0°C 75% 5.1 mph NE8.2 kmh NE 8.5 mph13.7 kmh 29.86 in1011.2 mb 0.00 in0.0 mm 0.00 in0.0 mm 0.00 in0.0 mm
04:10 AM 54.3°F12.4°C 48.2°F9.0°C 75% 4.3 mph NE6.9 kmh NE 8.5 mph13.7 kmh 29.86 in1011.2 mb 0.00 in0.0 mm 0.00 in0.0 mm 0.00 in0.0 mm
04:15 AM 54.3°F12.4°C 48.2°F9.0°C 76% 3.9 mph NE6.3 kmh NE 5.4 mph8.7 kmh 29.86 in1011.2 mb 0.00 in0.0 mm 0.00 in0.0 mm 0.00 in0.0 mm
04:20 AM 54.5°F12.5°C 48.2°F9.0°C 76% 4.1 mph NE6.6 kmh NE 6.0 mph9.7 kmh 29.86 in1011.2 mb 0.00 in0.0 mm 0.00 in0.0 mm 0.00 in0.0 mm
04:25 AM 54.7°F12.6°C 48.2°F9.0°C 76% 4.5 mph NE7.2 kmh NE 6.0 mph9.7 kmh 29.86 in1011.2 mb 0.00 in0.0 mm 0.00 in0.0 mm 0.00 in0.0 mm
04:30 AM 54.9°F12.7°C 48.2°F9.0°C 76% 4.2 mph NE6.8 kmh NE 6.3 mph10.1 kmh 29.86 in1011.2 mb 0.00 in0.0 mm 0.00 in0.0 mm 0.00 in0.0 mm
04:35 AM 55.0°F12.8°C 48.2°F9.0°C 76% 4.0 mph NE6.4 kmh NE 6.3 mph10.1 kmh 29.86 in1011.2 mb 0.00 in0.0 mm 0.00 in0.0 mm 0.00 in0.0 mm
04:40 AM 55.0°F12.8°C 48.2°F9.0°C 76% 4.7 mph NE7.6 kmh NE 5.8 mph9.3 kmh 29.86 in1011.2 mb 0.00 in0.0 mm 0.00 in0.0 mm 0.00 in0.0 mm
04:45 AM 55.2°F12.9°C 48.2°F9.0°C 76% 5.3 mph NE8.5 kmh NE 7.6 mph12.2 kmh 29.86 in1011.2 mb 0.00 in0.0 mm 0.00 in0.0 mm 0.00 in0.0 mm
04:50 AM 55.2°F12.9°C 48.2°F9.0°C 76% 5.3 mph NE8.5 kmh NE 7.6 mph12.2 kmh 29.83 in1010.2 mb 0.00 in0.0 mm 0.00 in0.0 mm 0.00 in0.0 mm
04:55 AM 55.4°F13.0°C 48.2°F9.0°C 76% 5.1 mph ENE8.2 kmh ENE 7.6 mph12.2 kmh 29.83 in1010.2 mb 0.00 in0.0 mm 0.00 in0.0 mm 0.00 in0.0 mm
05:00 AM 55.8°F13.2°C 48.2°F9.0°C 76% 4.7 mph NE7.6 kmh NE 7.4 mph11.9 kmh 29.83 in1010.2 mb 0.00 in0.0 mm 0.00 in0.0 mm 0.00 in0.0 mm
05:05 AM 55.8°F13.2°C 48.2°F9.0°C 76% 4.3 mph ENE6.9 kmh ENE 7.4 mph11.9 kmh 29.83 in1010.2 mb 0.00 in0.0 mm 0.00 in0.0 mm 0.00 in0.0 mm
05:10 AM 55.9°F13.3°C 50.0°F10.0°C 77% 3.7 mph ENE6.0 kmh ENE 6.0 mph9.7 kmh 29.83 in1010.2 mb 0.00 in0.0 mm 0.00 in0.0 mm 0.00 in0.0 mm
05:15 AM 56.1°F13.4°C 50.0°F10.0°C 77% 2.9 mph NE4.7 kmh NE 6.0 mph9.7 kmh 29.83 in1010.2 mb 0.00 in0.0 mm 0.00 in0.0 mm 0.00 in0.0 mm
05:20 AM 56.3°F13.5°C 50.0°F10.0°C 77% 4.1 mph NE6.6 kmh NE 6.5 mph10.5 kmh 29.86 in1011.2 mb 0.00 in0.0 mm 0.00 in0.0 mm 0.00 in0.0 mm
05:25 AM 56.7°F13.7°C 50.0°F10.0°C 77% 5.2 mph NE8.4 kmh NE 6.5 mph10.5 kmh 29.86 in1011.2 mb 0.00 in0.0 mm 0.00 in0.0 mm 0.00 in0.0 mm
05:30 AM 56.7°F13.7°C 50.0°F10.0°C 77% 4.9 mph NE7.9 kmh NE 6.0 mph9.7 kmh 29.86 in1011.2 mb 0.00 in0.0 mm 0.00 in0.0 mm 0.00 in0.0 mm
05:35 AM 56.8°F13.8°C 50.0°F10.0°C 77% 4.4 mph NE7.1 kmh NE 6.0 mph9.7 kmh 29.86 in1011.2 mb 0.00 in0.0 mm 0.00 in0.0 mm 0.00 in0.0 mm
05:40 AM 57.2°F14.0°C 50.0°F10.0°C 77% 3.7 mph NE6.0 kmh NE 5.6 mph9.0 kmh 29.86 in1011.2 mb 0.00 in0.0 mm 0.00 in0.0 mm 0.00 in0.0 mm
05:45 AM 57.2°F14.0°C 50.0°F10.0°C 77% 3.5 mph NE5.6 kmh NE 5.6 mph9.0 kmh 29.86 in1011.2 mb 0.00 in0.0 mm 0.00 in0.0 mm 0.00 in0.0 mm
05:50 AM 57.4°F14.1°C 50.0°F10.0°C 77% 3.2 mph NE5.1 kmh NE 4.9 mph7.9 kmh 29.86 in1011.2 mb 0.00 in0.0 mm 0.00 in0.0 mm 0.00 in0.0 mm
05:55 AM 57.7°F14.3°C 51.8°F11.0°C 77% 3.0 mph NE4.8 kmh NE 4.9 mph7.9 kmh 29.86 in1011.2 mb 0.00 in0.0 mm 0.00 in0.0 mm 0.00 in0.0 mm
06:00 AM 57.9°F14.4°C 51.8°F11.0°C 77% 3.4 mph NE5.5 kmh NE 6.5 mph10.5 kmh 29.86 in1011.2 mb 0.00 in0.0 mm 0.00 in0.0 mm 0.00 in0.0 mm
06:05 AM 58.1°F14.5°C 51.8°F11.0°C 77% 3.3 mph NE5.3 kmh NE 6.5 mph10.5 kmh 29.86 in1011.2 mb 0.00 in0.0 mm 0.00 in0.0 mm 0.00 in0.0 mm
06:10 AM 58.3°F14.6°C 51.8°F11.0°C 77% 3.2 mph NE5.1 kmh NE 4.9 mph7.9 kmh 29.86 in1011.2 mb 0.00 in0.0 mm 0.00 in0.0 mm 0.00 in0.0 mm
06:15 AM 58.6°F14.8°C 51.8°F11.0°C 77% 3.2 mph ENE5.1 kmh ENE 4.9 mph7.9 kmh 29.86 in1011.2 mb 0.00 in0.0 mm 0.00 in0.0 mm 0.00 in0.0 mm
06:20 AM 59.0°F15.0°C 51.8°F11.0°C 76% 3.0 mph ENE4.8 kmh ENE 4.0 mph6.4 kmh 29.86 in1011.2 mb 0.00 in0.0 mm 0.00 in0.0 mm 0.00 in0.0 mm
06:25 AM 59.5°F15.3°C 51.8°F11.0°C 76% 4.2 mph E6.8 kmh E 7.4 mph11.9 kmh 29.86 in1011.2 mb 0.00 in0.0 mm 0.00 in0.0 mm 0.00 in0.0 mm
06:30 AM 59.7°F15.4°C 51.8°F11.0°C 76% 3.8 mph E6.1 kmh E 7.4 mph11.9 kmh 29.86 in1011.2 mb 0.00 in0.0 mm 0.00 in0.0 mm 0.00 in0.0 mm
06:35 AM 60.1°F15.6°C 53.6°F12.0°C 76% 2.9 mph E4.7 kmh E 6.3 mph10.1 kmh 29.86 in1011.2 mb 0.00 in0.0 mm 0.00 in0.0 mm 0.00 in0.0 mm
06:40 AM 60.3°F15.7°C 53.6°F12.0°C 76% 2.6 mph E4.2 kmh E 6.3 mph10.1 kmh 29.86 in1011.2 mb 0.00 in0.0 mm 0.00 in0.0 mm 0.00 in0.0 mm
06:45 AM 60.4°F15.8°C 53.6°F12.0°C 75% 2.9 mph ESE4.7 kmh ESE 6.0 mph9.7 kmh 29.86 in1011.2 mb 0.00 in0.0 mm 0.00 in0.0 mm 0.00 in0.0 mm
06:50 AM 60.8°F16.0°C 53.6°F12.0°C 75% 3.3 mph ESE5.3 kmh ESE 6.3 mph10.1 kmh 29.86 in1011.2 mb 0.00 in0.0 mm 0.00 in0.0 mm 0.00 in0.0 mm
06:55 AM 61.0°F16.1°C 53.6°F12.0°C 75% 3.7 mph E6.0 kmh E 6.3 mph10.1 kmh 29.86 in1011.2 mb 0.00 in0.0 mm 0.00 in0.0 mm 0.00 in0.0 mm
07:00 AM 61.2°F16.2°C 53.6°F12.0°C 74% 3.6 mph E5.8 kmh E 6.3 mph10.1 kmh 29.86 in1011.2 mb 0.00 in0.0 mm 0.00 in0.0 mm 0.00 in0.0 mm
07:05 AM 61.5°F16.4°C 53.6°F12.0°C 74% 2.9 mph E4.7 kmh E 6.0 mph9.7 kmh 29.86 in1011.2 mb 0.00 in0.0 mm 0.00 in0.0 mm 0.00 in0.0 mm
07:10 AM 61.9°F16.6°C 53.6°F12.0°C 74% 3.9 mph SE6.3 kmh SE 8.1 mph13.0 kmh 29.86 in1011.2 mb 0.00 in0.0 mm 0.00 in0.0 mm 0.00 in0.0 mm
07:15 AM 62.1°F16.7°C 53.6°F12.0°C 73% 4.7 mph ESE7.6 kmh ESE 8.5 mph13.7 kmh 29.86 in1011.2 mb 0.00 in0.0 mm 0.00 in0.0 mm 0.00 in0.0 mm
07:20 AM 62.4°F16.9°C 53.6°F12.0°C 73% 5.2 mph E8.4 kmh E 11.0 mph17.7 kmh 29.86 in1011.2 mb 0.00 in0.0 mm 0.00 in0.0 mm 0.00 in0.0 mm
07:25 AM 62.8°F17.1°C 53.6°F12.0°C 71% 4.6 mph E7.4 kmh E 11.0 mph17.7 kmh 29.86 in1011.2 mb 0.00 in0.0 mm 0.00 in0.0 mm 0.00 in0.0 mm
07:30 AM 63.0°F17.2°C 53.6°F12.0°C 71% 3.5 mph E5.6 kmh E 7.8 mph12.6 kmh 29.86 in1011.2 mb 0.00 in0.0 mm 0.00 in0.0 mm 0.00 in0.0 mm
07:35 AM 63.5°F17.5°C 53.6°F12.0°C 70% 2.8 mph E4.5 kmh E 7.8 mph12.6 kmh 29.86 in1011.2 mb 0.00 in0.0 mm 0.00 in0.0 mm 0.00 in0.0 mm
07:40 AM 63.7°F17.6°C 53.6°F12.0°C 70% 2.8 mph ESE4.5 kmh ESE 7.2 mph11.6 kmh 29.86 in1011.2 mb 0.00 in0.0 mm 0.00 in0.0 mm 0.00 in0.0 mm
07:45 AM 64.0°F17.8°C 53.6°F12.0°C 69% 2.4 mph ESE3.9 kmh ESE 7.2 mph11.6 kmh 29.86 in1011.2 mb 0.00 in0.0 mm 0.00 in0.0 mm 0.00 in0.0 mm
07:50 AM 64.6°F18.1°C 53.6°F12.0°C 68% 1.9 mph E3.1 kmh E 3.8 mph6.1 kmh 29.86 in1011.2 mb 0.00 in0.0 mm 0.00 in0.0 mm 0.00 in0.0 mm
07:55 AM 65.1°F18.4°C 55.4°F13.0°C 68% 3.5 mph E5.6 kmh E 6.5 mph10.5 kmh 29.86 in1011.2 mb 0.00 in0.0 mm 0.00 in0.0 mm 0.00 in0.0 mm
08:00 AM 65.7°F18.7°C 55.4°F13.0°C 68% 4.5 mph E7.2 kmh E 8.1 mph13.0 kmh 29.86 in1011.2 mb 0.00 in0.0 mm 0.00 in0.0 mm 0.00 in0.0 mm
08:05 AM 66.0°F18.9°C 55.4°F13.0°C 67% 3.8 mph E6.1 kmh E 8.1 mph13.0 kmh 29.86 in1011.2 mb 0.00 in0.0 mm 0.00 in0.0 mm 0.00 in0.0 mm
08:10 AM 66.4°F19.1°C 55.4°F13.0°C 65% 3.8 mph ENE6.1 kmh ENE 10.3 mph16.6 kmh 29.86 in1011.2 mb 0.00 in0.0 mm 0.00 in0.0 mm 0.00 in0.0 mm
08:15 AM 67.1°F19.5°C 55.4°F13.0°C 65% 3.9 mph E6.3 kmh E 10.3 mph16.6 kmh 29.86 in1011.2 mb 0.00 in0.0 mm 0.00 in0.0 mm 0.00 in0.0 mm
08:20 AM 67.6°F19.8°C 55.4°F13.0°C 64% 4.3 mph E6.9 kmh E 10.3 mph16.6 kmh 29.86 in1011.2 mb 0.00 in0.0 mm 0.00 in0.0 mm 0.00 in0.0 mm
08:25 AM 68.0°F20.0°C 55.4°F13.0°C 63% 3.0 mph E4.8 kmh E 5.6 mph9.0 kmh 29.86 in1011.2 mb 0.00 in0.0 mm 0.00 in0.0 mm 0.00 in0.0 mm
08:30 AM 68.5°F20.3°C 55.4°F13.0°C 62% 4.0 mph E6.4 kmh E 8.5 mph13.7 kmh 29.86 in1011.2 mb 0.00 in0.0 mm 0.00 in0.0 mm 0.00 in0.0 mm
08:35 AM 69.3°F20.7°C 55.4°F13.0°C 62% 4.7 mph E7.6 kmh E 8.5 mph13.7 kmh 29.86 in1011.2 mb 0.00 in0.0 mm 0.00 in0.0 mm 0.00 in0.0 mm
08:40 AM 69.6°F20.9°C 55.4°F13.0°C 61% 3.7 mph E6.0 kmh E 8.5 mph13.7 kmh 29.86 in1011.2 mb 0.00 in0.0 mm 0.00 in0.0 mm 0.00 in0.0 mm
08:45 AM 70.2°F21.2°C 55.4°F13.0°C 60% 3.4 mph E5.5 kmh E 9.8 mph15.8 kmh 29.86 in1011.2 mb 0.00 in0.0 mm 0.00 in0.0 mm 0.00 in0.0 mm
08:50 AM 70.9°F21.6°C 57.2°F14.0°C 60% 4.2 mph E6.8 kmh E 9.8 mph15.8 kmh 29.86 in1011.2 mb 0.00 in0.0 mm 0.00 in0.0 mm 0.00 in0.0 mm
08:55 AM 71.4°F21.9°C 55.4°F13.0°C 58% 4.6 mph E7.4 kmh E 7.4 mph11.9 kmh 29.86 in1011.2 mb 0.00 in0.0 mm 0.00 in0.0 mm 0.00 in0.0 mm
09:00 AM 72.1°F22.3°C 55.4°F13.0°C 57% 4.4 mph E7.1 kmh E 7.4 mph11.9 kmh 29.86 in1011.2 mb 0.00 in0.0 mm 0.00 in0.0 mm 0.00 in0.0 mm
09:05 AM 72.5°F22.5°C 55.4°F13.0°C 56% 3.8 mph SE6.1 kmh SE 8.5 mph13.7 kmh 29.83 in1010.2 mb 0.00 in0.0 mm 0.00 in0.0 mm 0.00 in0.0 mm
09:10 AM 73.0°F22.8°C 55.4°F13.0°C 56% 4.5 mph E7.2 kmh E 8.5 mph13.7 kmh 29.83 in1010.2 mb 0.00 in0.0 mm 0.00 in0.0 mm 0.00 in0.0 mm
09:15 AM 73.8°F23.2°C 57.2°F14.0°C 54% 4.3 mph E6.9 kmh E 8.5 mph13.7 kmh 29.83 in1010.2 mb 0.00 in0.0 mm 0.00 in0.0 mm 0.00 in0.0 mm
09:20 AM 74.1°F23.4°C 55.4°F13.0°C 53% 3.3 mph ESE5.3 kmh ESE 4.9 mph7.9 kmh 29.86 in1011.2 mb 0.00 in0.0 mm 0.00 in0.0 mm 0.00 in0.0 mm
09:25 AM 74.8°F23.8°C 55.4°F13.0°C 52% 3.9 mph SE6.3 kmh SE 8.1 mph13.0 kmh 29.86 in1011.2 mb 0.00 in0.0 mm 0.00 in0.0 mm 0.00 in0.0 mm
09:30 AM 75.6°F24.2°C 57.2°F14.0°C 52% 4.8 mph ESE7.7 kmh ESE 8.1 mph13.0 kmh 29.86 in1011.2 mb 0.00 in0.0 mm 0.00 in0.0 mm 0.00 in0.0 mm
09:35 AM 76.1°F24.5°C 57.2°F14.0°C 51% 4.4 mph ESE7.1 kmh ESE 7.6 mph12.2 kmh 29.86 in1011.2 mb 0.00 in0.0 mm 0.00 in0.0 mm 0.00 in0.0 mm
09:40 AM 77.0°F25.0°C 57.2°F14.0°C 50% 3.8 mph ESE6.1 kmh ESE 6.0 mph9.7 kmh 29.86 in1011.2 mb 0.00 in0.0 mm 0.00 in0.0 mm 0.00 in0.0 mm
09:45 AM 77.4°F25.2°C 57.2°F14.0°C 49% 3.4 mph ESE5.5 kmh ESE 5.8 mph9.3 kmh 29.86 in1011.2 mb 0.00 in0.0 mm 0.00 in0.0 mm 0.00 in0.0 mm
09:50 AM 77.9°F25.5°C 57.2°F14.0°C 48% 3.8 mph SE6.1 kmh SE 7.8 mph12.6 kmh 29.83 in1010.2 mb 0.00 in0.0 mm 0.00 in0.0 mm 0.00 in0.0 mm
09:55 AM 78.6°F25.9°C 57.2°F14.0°C 48% 4.3 mph SE6.9 kmh SE 7.8 mph12.6 kmh 29.83 in1010.2 mb 0.00 in0.0 mm 0.00 in0.0 mm 0.00 in0.0 mm
10:00 AM 79.0°F26.1°C 57.2°F14.0°C 47% 3.9 mph E6.3 kmh E 8.1 mph13.0 kmh 29.83 in1010.2 mb 0.00 in0.0 mm 0.00 in0.0 mm 0.00 in0.0 mm
10:05 AM 79.9°F26.6°C 59.0°F15.0°C 47% 3.6 mph E5.8 kmh E 8.1 mph13.0 kmh 29.83 in1010.2 mb 0.00 in0.0 mm 0.00 in0.0 mm 0.00 in0.0 mm
10:10 AM 79.9°F26.6°C 57.2°F14.0°C 46% 3.9 mph E6.3 kmh E 8.7 mph14.0 kmh 29.83 in1010.2 mb 0.00 in0.0 mm 0.00 in0.0 mm 0.00 in0.0 mm
10:15 AM 80.8°F27.1°C 57.2°F14.0°C 45% 4.6 mph ESE7.4 kmh ESE 8.7 mph14.0 kmh 29.83 in1010.2 mb 0.00 in0.0 mm 0.00 in0.0 mm 0.00 in0.0 mm
10:20 AM 81.0°F27.2°C 59.0°F15.0°C 45% 5.4 mph ESE8.7 kmh ESE 9.6 mph15.4 kmh 29.83 in1010.2 mb 0.00 in0.0 mm 0.00 in0.0 mm 0.00 in0.0 mm
10:25 AM 81.3°F27.4°C 57.2°F14.0°C 44% 6.1 mph ESE9.8 kmh ESE 9.6 mph15.4 kmh 29.83 in1010.2 mb 0.00 in0.0 mm 0.00 in0.0 mm 0.00 in0.0 mm
10:30 AM 82.2°F27.9°C 59.0°F15.0°C 44% 5.7 mph E9.2 kmh E 8.7 mph14.0 kmh 29.83 in1010.2 mb 0.00 in0.0 mm 0.00 in0.0 mm 0.00 in0.0 mm
10:35 AM 82.4°F28.0°C 59.0°F15.0°C 44% 5.8 mph E9.3 kmh E 8.7 mph14.0 kmh 29.83 in1010.2 mb 0.00 in0.0 mm 0.00 in0.0 mm 0.00 in0.0 mm
10:40 AM 83.1°F28.4°C 59.0°F15.0°C 44% 5.1 mph E8.2 kmh E 8.1 mph13.0 kmh 29.83 in1010.2 mb 0.00 in0.0 mm 0.00 in0.0 mm 0.00 in0.0 mm
10:45 AM 83.5°F28.6°C 60.8°F16.0°C 44% 5.5 mph NE8.9 kmh NE 8.7 mph14.0 kmh 29.83 in1010.2 mb 0.00 in0.0 mm 0.00 in0.0 mm 0.00 in0.0 mm
10:50 AM 83.5°F28.6°C 60.8°F16.0°C 44% 5.1 mph ENE8.2 kmh ENE 8.7 mph14.0 kmh 29.86 in1011.2 mb 0.00 in0.0 mm 0.00 in0.0 mm 0.00 in0.0 mm
10:55 AM 84.0°F28.9°C 59.0°F15.0°C 43% 4.2 mph E6.8 kmh E 7.8 mph12.6 kmh 29.86 in1011.2 mb 0.00 in0.0 mm 0.00 in0.0 mm 0.00 in0.0 mm
11:00 AM 84.2°F29.0°C 59.0°F15.0°C 42% 5.6 mph E9.0 kmh E 10.1 mph16.3 kmh 29.86 in1011.2 mb 0.00 in0.0 mm 0.00 in0.0 mm 0.00 in0.0 mm
11:05 AM 84.9°F29.4°C 59.0°F15.0°C 41% 6.3 mph E10.1 kmh E 10.1 mph16.3 kmh 29.86 in1011.2 mb 0.00 in0.0 mm 0.00 in0.0 mm 0.00 in0.0 mm
11:10 AM 85.3°F29.6°C 59.0°F15.0°C 41% 6.1 mph E9.8 kmh E 10.1 mph16.3 kmh 29.86 in1011.2 mb 0.00 in0.0 mm 0.00 in0.0 mm 0.00 in0.0 mm
11:15 AM 85.5°F29.7°C 59.0°F15.0°C 41% 6.1 mph E9.8 kmh E 10.3 mph16.6 kmh 29.86 in1011.2 mb 0.00 in0.0 mm 0.00 in0.0 mm 0.00 in0.0 mm
11:20 AM 85.8°F29.9°C 59.0°F15.0°C 40% 5.7 mph E9.2 kmh E 11.9 mph19.2 kmh 29.86 in1011.2 mb 0.00 in0.0 mm 0.00 in0.0 mm 0.00 in0.0 mm
11:25 AM 85.6°F29.8°C 59.0°F15.0°C 40% 5.9 mph E9.5 kmh E 12.1 mph19.5 kmh 29.86 in1011.2 mb 0.00 in0.0 mm 0.00 in0.0 mm 0.00 in0.0 mm
11:30 AM 85.1°F29.5°C 59.0°F15.0°C 40% 6.7 mph E10.8 kmh E 12.1 mph19.5 kmh 29.86 in1011.2 mb 0.00 in0.0 mm 0.00 in0.0 mm 0.00 in0.0 mm
11:35 AM 85.8°F29.9°C 59.0°F15.0°C 40% 7.2 mph E11.6 kmh E 14.8 mph23.8 kmh 29.86 in1011.2 mb 0.00 in0.0 mm 0.00 in0.0 mm 0.00 in0.0 mm
11:40 AM 84.6°F29.2°C 57.2°F14.0°C 39% 6.0 mph E9.7 kmh E 14.8 mph23.8 kmh 29.86 in1011.2 mb 0.00 in0.0 mm 0.00 in0.0 mm 0.00 in0.0 mm
11:45 AM 84.6°F29.2°C 57.2°F14.0°C 39% 5.0 mph E8.0 kmh E 10.7 mph17.2 kmh 29.86 in1011.2 mb 0.00 in0.0 mm 0.00 in0.0 mm 0.00 in0.0 mm
11:50 AM 84.9°F29.4°C 57.2°F14.0°C 39% 4.2 mph E6.8 kmh E 9.6 mph15.4 kmh 29.86 in1011.2 mb 0.00 in0.0 mm 0.00 in0.0 mm 0.00 in0.0 mm
11:55 AM 84.9°F29.4°C 57.2°F14.0°C 39% 3.7 mph SE6.0 kmh SE 7.8 mph12.6 kmh 29.86 in1011.2 mb 0.00 in0.0 mm 0.00 in0.0 mm 0.00 in0.0 mm
12:00 PM 85.5°F29.7°C 57.2°F14.0°C 38% 4.8 mph E7.7 kmh E 8.5 mph13.7 kmh 29.86 in1011.2 mb 0.00 in0.0 mm 0.00 in0.0 mm 0.00 in0.0 mm
12:05 PM 86.7°F30.4°C 59.0°F15.0°C 39% 5.2 mph E8.4 kmh E 9.8 mph15.8 kmh 29.86 in1011.2 mb 0.00 in0.0 mm 0.00 in0.0 mm 0.00 in0.0 mm
12:10 PM 87.1°F30.6°C 59.0°F15.0°C 38% 5.1 mph E8.2 kmh E 9.8 mph15.8 kmh 29.86 in1011.2 mb 0.00 in0.0 mm 0.00 in0.0 mm 0.00 in0.0 mm
12:15 PM 86.2°F30.1°C 57.2°F14.0°C 38% 5.3 mph ESE8.5 kmh ESE 9.8 mph15.8 kmh 29.86 in1011.2 mb 0.00 in0.0 mm 0.00 in0.0 mm 0.00 in0.0 mm
12:20 PM 86.0°F30.0°C 57.2°F14.0°C 38% 4.2 mph E6.8 kmh E 7.2 mph11.6 kmh 29.86 in1011.2 mb 0.00 in0.0 mm 0.00 in0.0 mm 0.00 in0.0 mm
12:25 PM 86.4°F30.2°C 57.2°F14.0°C 38% 4.9 mph E7.9 kmh E 8.5 mph13.7 kmh 29.86 in1011.2 mb 0.00 in0.0 mm 0.00 in0.0 mm 0.00 in0.0 mm
12:30 PM 86.7°F30.4°C 57.2°F14.0°C 37% 6.1 mph ESE9.8 kmh ESE 8.5 mph13.7 kmh 29.86 in1011.2 mb 0.00 in0.0 mm 0.00 in0.0 mm 0.00 in0.0 mm
12:35 PM 87.3°F30.7°C 57.2°F14.0°C 36% 6.1 mph E9.8 kmh E 8.1 mph13.0 kmh 29.86 in1011.2 mb 0.00 in0.0 mm 0.00 in0.0 mm 0.00 in0.0 mm
12:40 PM 86.5°F30.3°C 57.2°F14.0°C 36% 6.4 mph E10.3 kmh E 8.5 mph13.7 kmh 29.86 in1011.2 mb 0.00 in0.0 mm 0.00 in0.0 mm 0.00 in0.0 mm
12:45 PM 87.3°F30.7°C 55.4°F13.0°C 35% 4.8 mph E7.7 kmh E 8.5 mph13.7 kmh 29.86 in1011.2 mb 0.00 in0.0 mm 0.00 in0.0 mm 0.00 in0.0 mm
12:50 PM 87.3°F30.7°C 57.2°F14.0°C 36% 3.1 mph ENE5.0 kmh ENE 7.6 mph12.2 kmh 29.86 in1011.2 mb 0.00 in0.0 mm 0.00 in0.0 mm 0.00 in0.0 mm
12:55 PM 86.4°F30.2°C 55.4°F13.0°C 35% 5.4 mph E8.7 kmh E 12.8 mph20.6 kmh 29.86 in1011.2 mb 0.00 in0.0 mm 0.00 in0.0 mm 0.00 in0.0 mm
01:00 PM 86.5°F30.3°C 55.4°F13.0°C 35% 6.6 mph E10.6 kmh E 12.8 mph20.6 kmh 29.86 in1011.2 mb 0.00 in0.0 mm 0.00 in0.0 mm 0.00 in0.0 mm
01:05 PM 86.2°F30.1°C 55.4°F13.0°C 34% 7.3 mph E11.7 kmh E 13.9 mph22.4 kmh 29.86 in1011.2 mb 0.00 in0.0 mm 0.00 in0.0 mm 0.00 in0.0 mm
01:10 PM 86.7°F30.4°C 55.4°F13.0°C 34% 8.0 mph E12.9 kmh E 13.9 mph22.4 kmh 29.86 in1011.2 mb 0.00 in0.0 mm 0.00 in0.0 mm 0.00 in0.0 mm
01:15 PM 87.6°F30.9°C 55.4°F13.0°C 34% 6.2 mph ESE10.0 kmh ESE 11.9 mph19.2 kmh 29.86 in1011.2 mb 0.00 in0.0 mm 0.00 in0.0 mm 0.00 in0.0 mm
01:20 PM 87.8°F31.0°C 55.4°F13.0°C 34% 5.2 mph E8.4 kmh E 11.0 mph17.7 kmh 29.86 in1011.2 mb 0.00 in0.0 mm 0.00 in0.0 mm 0.00 in0.0 mm
01:25 PM 87.3°F30.7°C 55.4°F13.0°C 33% 6.2 mph E10.0 kmh E 10.5 mph16.9 kmh 29.86 in1011.2 mb 0.00 in0.0 mm 0.00 in0.0 mm 0.00 in0.0 mm
01:30 PM 87.3°F30.7°C 55.4°F13.0°C 33% 5.4 mph ESE8.7 kmh ESE 10.5 mph16.9 kmh 29.86 in1011.2 mb 0.00 in0.0 mm 0.00 in0.0 mm 0.00 in0.0 mm
01:35 PM 86.9°F30.5°C 53.6°F12.0°C 32% 5.0 mph E8.0 kmh E 10.5 mph16.9 kmh 29.86 in1011.2 mb 0.00 in0.0 mm 0.00 in0.0 mm 0.00 in0.0 mm
01:40 PM 86.0°F30.0°C 51.8°F11.0°C 31% 5.7 mph E9.2 kmh E 10.5 mph16.9 kmh 29.86 in1011.2 mb 0.00 in0.0 mm 0.00 in0.0 mm 0.00 in0.0 mm
01:45 PM 86.0°F30.0°C 51.8°F11.0°C 31% 6.0 mph SE9.7 kmh SE 10.5 mph16.9 kmh 29.86 in1011.2 mb 0.00 in0.0 mm 0.00 in0.0 mm 0.00 in0.0 mm
01:50 PM 85.6°F29.8°C 51.8°F11.0°C 31% 6.2 mph ESE10.0 kmh ESE 9.8 mph15.8 kmh 29.86 in1011.2 mb 0.00 in0.0 mm 0.00 in0.0 mm 0.00 in0.0 mm
01:55 PM 85.8°F29.9°C 51.8°F11.0°C 31% 5.0 mph E8.0 kmh E 9.8 mph15.8 kmh 29.86 in1011.2 mb 0.00 in0.0 mm 0.00 in0.0 mm 0.00 in0.0 mm
02:00 PM 86.2°F30.1°C 51.8°F11.0°C 31% 5.3 mph E8.5 kmh E 8.1 mph13.0 kmh 29.86 in1011.2 mb 0.00 in0.0 mm 0.00 in0.0 mm 0.00 in0.0 mm
02:05 PM 86.4°F30.2°C 53.6°F12.0°C 31% 5.2 mph ENE8.4 kmh ENE 9.4 mph15.1 kmh 29.86 in1011.2 mb 0.00 in0.0 mm 0.00 in0.0 mm 0.00 in0.0 mm
02:10 PM 86.5°F30.3°C 51.8°F11.0°C 30% 4.5 mph NE7.2 kmh NE 9.4 mph15.1 kmh 29.86 in1011.2 mb 0.00 in0.0 mm 0.00 in0.0 mm 0.00 in0.0 mm
02:15 PM 86.4°F30.2°C 51.8°F11.0°C 30% 3.5 mph ENE5.6 kmh ENE 8.1 mph13.0 kmh 29.86 in1011.2 mb 0.00 in0.0 mm 0.00 in0.0 mm 0.00 in0.0 mm
02:20 PM 85.6°F29.8°C 50.0°F10.0°C 30% 4.2 mph ENE6.8 kmh ENE 12.1 mph19.5 kmh 29.86 in1011.2 mb 0.00 in0.0 mm 0.00 in0.0 mm 0.00 in0.0 mm
02:25 PM 85.5°F29.7°C 50.0°F10.0°C 30% 5.6 mph E9.0 kmh E 12.1 mph19.5 kmh 29.86 in1011.2 mb 0.00 in0.0 mm 0.00 in0.0 mm 0.00 in0.0 mm
02:30 PM 85.1°F29.5°C 50.0°F10.0°C 29% 5.3 mph E8.5 kmh E 10.3 mph16.6 kmh 29.86 in1011.2 mb 0.00 in0.0 mm 0.00 in0.0 mm 0.00 in0.0 mm
02:35 PM 84.7°F29.3°C 48.2°F9.0°C 29% 5.4 mph E8.7 kmh E 12.1 mph19.5 kmh 29.86 in1011.2 mb 0.00 in0.0 mm 0.00 in0.0 mm 0.00 in0.0 mm
02:40 PM 84.2°F29.0°C 48.2°F9.0°C 29% 5.5 mph E8.9 kmh E 12.1 mph19.5 kmh 29.86 in1011.2 mb 0.00 in0.0 mm 0.00 in0.0 mm 0.00 in0.0 mm
02:45 PM 84.4°F29.1°C 50.0°F10.0°C 30% 3.8 mph E6.1 kmh E 8.7 mph14.0 kmh 29.86 in1011.2 mb 0.00 in0.0 mm 0.00 in0.0 mm 0.00 in0.0 mm
02:50 PM 83.5°F28.6°C 50.0°F10.0°C 30% 3.8 mph ESE6.1 kmh ESE 9.2 mph14.8 kmh 29.86 in1011.2 mb 0.00 in0.0 mm 0.00 in0.0 mm 0.00 in0.0 mm
02:55 PM 84.2°F29.0°C 50.0°F10.0°C 30% 4.2 mph ESE6.8 kmh ESE 9.2 mph14.8 kmh 29.86 in1011.2 mb 0.00 in0.0 mm 0.00 in0.0 mm 0.00 in0.0 mm
03:00 PM 83.5°F28.6°C 50.0°F10.0°C 30% 4.4 mph SE7.1 kmh SE 6.5 mph10.5 kmh 29.86 in1011.2 mb 0.00 in0.0 mm 0.00 in0.0 mm 0.00 in0.0 mm
03:05 PM 83.1°F28.4°C 48.2°F9.0°C 30% 5.3 mph SE8.5 kmh SE 7.6 mph12.2 kmh 29.86 in1011.2 mb 0.00 in0.0 mm 0.00 in0.0 mm 0.00 in0.0 mm
03:10 PM 83.3°F28.5°C 50.0°F10.0°C 30% 4.6 mph E7.4 kmh E 7.6 mph12.2 kmh 29.86 in1011.2 mb 0.00 in0.0 mm 0.00 in0.0 mm 0.00 in0.0 mm
03:15 PM 82.9°F28.3°C 48.2°F9.0°C 30% 5.1 mph E8.2 kmh E 8.5 mph13.7 kmh 29.86 in1011.2 mb 0.00 in0.0 mm 0.00 in0.0 mm 0.00 in0.0 mm
03:20 PM 82.4°F28.0°C 48.2°F9.0°C 30% 5.7 mph E9.2 kmh E 8.5 mph13.7 kmh 29.86 in1011.2 mb 0.00 in0.0 mm 0.00 in0.0 mm 0.00 in0.0 mm
03:25 PM 82.6°F28.1°C 48.2°F9.0°C 30% 5.1 mph E8.2 kmh E 10.1 mph16.3 kmh 29.86 in1011.2 mb 0.00 in0.0 mm 0.00 in0.0 mm 0.00 in0.0 mm
03:30 PM 82.9°F28.3°C 48.2°F9.0°C 30% 4.8 mph E7.7 kmh E 10.1 mph16.3 kmh 29.86 in1011.2 mb 0.00 in0.0 mm 0.00 in0.0 mm 0.00 in0.0 mm
03:35 PM 82.4°F28.0°C 48.2°F9.0°C 30% 5.4 mph ESE8.7 kmh ESE 10.1 mph16.3 kmh 29.86 in1011.2 mb 0.00 in0.0 mm 0.00 in0.0 mm 0.00 in0.0 mm
03:40 PM 82.4°F28.0°C 50.0°F10.0°C 31% 5.5 mph E8.9 kmh E 8.5 mph13.7 kmh 29.86 in1011.2 mb 0.00 in0.0 mm 0.00 in0.0 mm 0.00 in0.0 mm
03:45 PM 81.0°F27.2°C 48.2°F9.0°C 31% 6.1 mph E9.8 kmh E 10.3 mph16.6 kmh 29.86 in1011.2 mb 0.00 in0.0 mm 0.00 in0.0 mm 0.00 in0.0 mm
03:50 PM 80.8°F27.1°C 48.2°F9.0°C 31% 6.9 mph E11.1 kmh E 10.3 mph16.6 kmh 29.86 in1011.2 mb 0.00 in0.0 mm 0.00 in0.0 mm 0.00 in0.0 mm
03:55 PM 80.6°F27.0°C 48.2°F9.0°C 31% 5.9 mph ESE9.5 kmh ESE 9.4 mph15.1 kmh 29.86 in1011.2 mb 0.00 in0.0 mm 0.00 in0.0 mm 0.00 in0.0 mm
04:00 PM 81.0°F27.2°C 48.2°F9.0°C 32% 5.5 mph E8.9 kmh E 11.0 mph17.7 kmh 29.86 in1011.2 mb 0.00 in0.0 mm 0.00 in0.0 mm 0.00 in0.0 mm
04:05 PM 81.1°F27.3°C 48.2°F9.0°C 32% 7.7 mph E12.4 kmh E 11.4 mph18.3 kmh 29.86 in1011.2 mb 0.00 in0.0 mm 0.00 in0.0 mm 0.00 in0.0 mm
04:10 PM 80.2°F26.8°C 48.2°F9.0°C 31% 8.1 mph E13.0 kmh E 11.4 mph18.3 kmh 29.86 in1011.2 mb 0.00 in0.0 mm 0.00 in0.0 mm 0.00 in0.0 mm
04:15 PM 79.7°F26.5°C 48.2°F9.0°C 31% 6.4 mph E10.3 kmh E 10.1 mph16.3 kmh 29.86 in1011.2 mb 0.00 in0.0 mm 0.00 in0.0 mm 0.00 in0.0 mm
04:20 PM 79.2°F26.2°C 48.2°F9.0°C 32% 5.7 mph E9.2 kmh E 14.5 mph23.3 kmh 29.86 in1011.2 mb 0.00 in0.0 mm 0.00 in0.0 mm 0.00 in0.0 mm
04:25 PM 78.8°F26.0°C 46.4°F8.0°C 32% 6.0 mph E9.7 kmh E 14.5 mph23.3 kmh 29.86 in1011.2 mb 0.00 in0.0 mm 0.00 in0.0 mm 0.00 in0.0 mm
04:30 PM 78.8°F26.0°C 46.4°F8.0°C 32% 5.1 mph E8.2 kmh E 12.5 mph20.1 kmh 29.86 in1011.2 mb 0.00 in0.0 mm 0.00 in0.0 mm 0.00 in0.0 mm
04:35 PM 79.0°F26.1°C 46.4°F8.0°C 32% 4.1 mph E6.6 kmh E 7.2 mph11.6 kmh 29.86 in1011.2 mb 0.00 in0.0 mm 0.00 in0.0 mm 0.00 in0.0 mm
04:40 PM 78.1°F25.6°C 46.4°F8.0°C 32% 4.7 mph E7.6 kmh E 12.3 mph19.8 kmh 29.86 in1011.2 mb 0.00 in0.0 mm 0.00 in0.0 mm 0.00 in0.0 mm
04:45 PM 77.4°F25.2°C 46.4°F8.0°C 33% 5.0 mph E8.0 kmh E 12.3 mph19.8 kmh 29.86 in1011.2 mb 0.00 in0.0 mm 0.00 in0.0 mm 0.00 in0.0 mm
04:50 PM 76.5°F24.7°C 46.4°F8.0°C 34% 4.3 mph ESE6.9 kmh ESE 6.0 mph9.7 kmh 29.86 in1011.2 mb 0.00 in0.0 mm 0.00 in0.0 mm 0.00 in0.0 mm
04:55 PM 76.5°F24.7°C 46.4°F8.0°C 35% 4.1 mph E6.6 kmh E 7.8 mph12.6 kmh 29.86 in1011.2 mb 0.00 in0.0 mm 0.00 in0.0 mm 0.00 in0.0 mm
05:00 PM 76.5°F24.7°C 46.4°F8.0°C 35% 5.0 mph E8.0 kmh E 9.6 mph15.4 kmh 29.86 in1011.2 mb 0.00 in0.0 mm 0.00 in0.0 mm 0.00 in0.0 mm
05:05 PM 75.9°F24.4°C 46.4°F8.0°C 35% 5.1 mph E8.2 kmh E 9.6 mph15.4 kmh 29.89 in1012.2 mb 0.00 in0.0 mm 0.00 in0.0 mm 0.00 in0.0 mm
05:10 PM 75.6°F24.2°C 48.2°F9.0°C 36% 4.3 mph E6.9 kmh E 8.5 mph13.7 kmh 29.89 in1012.2 mb 0.00 in0.0 mm 0.00 in0.0 mm 0.00 in0.0 mm
05:15 PM 75.4°F24.1°C 46.4°F8.0°C 36% 4.1 mph E6.6 kmh E 7.6 mph12.2 kmh 29.89 in1012.2 mb 0.00 in0.0 mm 0.00 in0.0 mm 0.00 in0.0 mm
05:20 PM 75.2°F24.0°C 46.4°F8.0°C 36% 5.2 mph E8.4 kmh E 8.1 mph13.0 kmh 29.89 in1012.2 mb 0.00 in0.0 mm 0.00 in0.0 mm 0.00 in0.0 mm
05:25 PM 75.0°F23.9°C 48.2°F9.0°C 37% 5.6 mph ENE9.0 kmh ENE 8.1 mph13.0 kmh 29.89 in1012.2 mb 0.00 in0.0 mm 0.00 in0.0 mm 0.00 in0.0 mm
05:30 PM 74.8°F23.8°C 46.4°F8.0°C 37% 5.3 mph E8.5 kmh E 8.7 mph14.0 kmh 29.89 in1012.2 mb 0.00 in0.0 mm 0.00 in0.0 mm 0.00 in0.0 mm
05:35 PM 74.3°F23.5°C 46.4°F8.0°C 37% 4.9 mph E7.9 kmh E 8.7 mph14.0 kmh 29.89 in1012.2 mb 0.00 in0.0 mm 0.00 in0.0 mm 0.00 in0.0 mm
05:40 PM 73.6°F23.1°C 46.4°F8.0°C 37% 3.0 mph E4.8 kmh E 4.7 mph7.6 kmh 29.89 in1012.2 mb 0.00 in0.0 mm 0.00 in0.0 mm 0.00 in0.0 mm
05:45 PM 73.2°F22.9°C 46.4°F8.0°C 38% 5.3 mph E8.5 kmh E 7.8 mph12.6 kmh 29.89 in1012.2 mb 0.00 in0.0 mm 0.00 in0.0 mm 0.00 in0.0 mm
05:50 PM 72.9°F22.7°C 46.4°F8.0°C 39% 6.9 mph E11.1 kmh E 9.8 mph15.8 kmh 29.89 in1012.2 mb 0.00 in0.0 mm 0.00 in0.0 mm 0.00 in0.0 mm
05:55 PM 72.3°F22.4°C 46.4°F8.0°C 39% 7.8 mph ESE12.6 kmh ESE 9.8 mph15.8 kmh 29.89 in1012.2 mb 0.00 in0.0 mm 0.00 in0.0 mm 0.00 in0.0 mm
06:00 PM 72.9°F22.7°C 46.4°F8.0°C 39% 9.8 mph ESE15.8 kmh ESE 9.8 mph15.8 kmh 29.89 in1012.2 mb 0.00 in0.0 mm 0.00 in0.0 mm 0.00 in0.0 mm
06:05 PM 72.9°F22.7°C 46.4°F8.0°C 39% 7.5 mph E12.1 kmh E 9.8 mph15.8 kmh 29.89 in1012.2 mb 0.00 in0.0 mm 0.00 in0.0 mm 0.00 in0.0 mm
06:10 PM 72.9°F22.7°C 46.4°F8.0°C 39% 6.7 mph ESE10.8 kmh ESE 9.8 mph15.8 kmh 29.89 in1012.2 mb 0.00 in0.0 mm 0.00 in0.0 mm 0.00 in0.0 mm
06:15 PM 72.9°F22.7°C 46.4°F8.0°C 39% 6.9 mph SSE11.1 kmh SSE 7.6 mph12.2 kmh 29.89 in1012.2 mb 0.00 in0.0 mm 0.00 in0.0 mm 0.00 in0.0 mm
06:20 PM 73.0°F22.8°C 48.2°F9.0°C 40% 7.0 mph S11.3 kmh S 7.6 mph12.2 kmh 29.89 in1012.2 mb 0.00 in0.0 mm 0.00 in0.0 mm 0.00 in0.0 mm
06:25 PM 72.9°F22.7°C 48.2°F9.0°C 40% 6.0 mph SSE9.7 kmh SSE 7.6 mph12.2 kmh 29.89 in1012.2 mb 0.00 in0.0 mm 0.00 in0.0 mm 0.00 in0.0 mm
06:30 PM 72.7°F22.6°C 48.2°F9.0°C 40% 6.6 mph SE10.6 kmh SE 9.4 mph15.1 kmh 29.89 in1012.2 mb 0.00 in0.0 mm 0.00 in0.0 mm 0.00 in0.0 mm
06:35 PM 72.1°F22.3°C 46.4°F8.0°C 40% 6.2 mph E10.0 kmh E 9.4 mph15.1 kmh 29.86 in1011.2 mb 0.00 in0.0 mm 0.00 in0.0 mm 0.00 in0.0 mm
06:40 PM 72.0°F22.2°C 46.4°F8.0°C 40% 5.8 mph NE9.3 kmh NE 9.4 mph15.1 kmh 29.86 in1011.2 mb 0.00 in0.0 mm 0.00 in0.0 mm 0.00 in0.0 mm
06:45 PM 72.0°F22.2°C 48.2°F9.0°C 41% 5.2 mph E8.4 kmh E 7.8 mph12.6 kmh 29.86 in1011.2 mb 0.00 in0.0 mm 0.00 in0.0 mm 0.00 in0.0 mm
06:50 PM 71.4°F21.9°C 46.4°F8.0°C 41% 4.6 mph E7.4 kmh E 8.1 mph13.0 kmh 29.86 in1011.2 mb 0.00 in0.0 mm 0.00 in0.0 mm 0.00 in0.0 mm
06:55 PM 70.7°F21.5°C 46.4°F8.0°C 41% 4.8 mph E7.7 kmh E 8.1 mph13.0 kmh 29.86 in1011.2 mb 0.00 in0.0 mm 0.00 in0.0 mm 0.00 in0.0 mm
07:00 PM 70.2°F21.2°C 46.4°F8.0°C 41% 5.7 mph E9.2 kmh E 8.5 mph13.7 kmh 29.86 in1011.2 mb 0.00 in0.0 mm 0.00 in0.0 mm 0.00 in0.0 mm
07:05 PM 69.6°F20.9°C 46.4°F8.0°C 42% 5.5 mph E8.9 kmh E 8.5 mph13.7 kmh 29.86 in1011.2 mb 0.00 in0.0 mm 0.00 in0.0 mm 0.00 in0.0 mm
07:10 PM 69.4°F20.8°C 46.4°F8.0°C 43% 4.4 mph E7.1 kmh E 7.2 mph11.6 kmh 29.86 in1011.2 mb 0.00 in0.0 mm 0.00 in0.0 mm 0.00 in0.0 mm
07:15 PM 68.7°F20.4°C 44.6°F7.0°C 43% 4.0 mph E6.4 kmh E 7.8 mph12.6 kmh 29.86 in1011.2 mb 0.00 in0.0 mm 0.00 in0.0 mm 0.00 in0.0 mm
07:20 PM 68.5°F20.3°C 46.4°F8.0°C 44% 4.4 mph E7.1 kmh E 7.8 mph12.6 kmh 29.86 in1011.2 mb 0.00 in0.0 mm 0.00 in0.0 mm 0.00 in0.0 mm
07:25 PM 68.2°F20.1°C 46.4°F8.0°C 44% 4.4 mph E7.1 kmh E 7.6 mph12.2 kmh 29.86 in1011.2 mb 0.00 in0.0 mm 0.00 in0.0 mm 0.00 in0.0 mm
07:30 PM 67.8°F19.9°C 46.4°F8.0°C 44% 4.6 mph E7.4 kmh E 7.4 mph11.9 kmh 29.86 in1011.2 mb 0.00 in0.0 mm 0.00 in0.0 mm 0.00 in0.0 mm
07:35 PM 67.5°F19.7°C 46.4°F8.0°C 45% 4.6 mph E7.4 kmh E 7.4 mph11.9 kmh 29.86 in1011.2 mb 0.00 in0.0 mm 0.00 in0.0 mm 0.00 in0.0 mm
07:40 PM 67.3°F19.6°C 46.4°F8.0°C 45% 3.9 mph E6.3 kmh E 7.4 mph11.9 kmh 29.86 in1011.2 mb 0.00 in0.0 mm 0.00 in0.0 mm 0.00 in0.0 mm
07:45 PM 66.9°F19.4°C 46.4°F8.0°C 46% 3.1 mph E5.0 kmh E 4.7 mph7.6 kmh 29.86 in1011.2 mb 0.00 in0.0 mm 0.00 in0.0 mm 0.00 in0.0 mm
07:50 PM 66.4°F19.1°C 44.6°F7.0°C 46% 4.0 mph E6.4 kmh E 6.5 mph10.5 kmh 29.86 in1011.2 mb 0.00 in0.0 mm 0.00 in0.0 mm 0.00 in0.0 mm
07:55 PM 66.2°F19.0°C 46.4°F8.0°C 47% 4.7 mph E7.6 kmh E 6.5 mph10.5 kmh 29.86 in1011.2 mb 0.00 in0.0 mm 0.00 in0.0 mm 0.00 in0.0 mm
08:00 PM 65.8°F18.8°C 46.4°F8.0°C 49% 4.5 mph E7.2 kmh E 5.8 mph9.3 kmh 29.86 in1011.2 mb 0.00 in0.0 mm 0.00 in0.0 mm 0.00 in0.0 mm
08:05 PM 65.7°F18.7°C 46.4°F8.0°C 49% 4.3 mph E6.9 kmh E 6.5 mph10.5 kmh 29.86 in1011.2 mb 0.00 in0.0 mm 0.00 in0.0 mm 0.00 in0.0 mm
08:10 PM 65.3°F18.5°C 46.4°F8.0°C 49% 4.3 mph E6.9 kmh E 6.5 mph10.5 kmh 29.86 in1011.2 mb 0.00 in0.0 mm 0.00 in0.0 mm 0.00 in0.0 mm
08:15 PM 64.9°F18.3°C 46.4°F8.0°C 50% 4.2 mph E6.8 kmh E 5.6 mph9.0 kmh 29.86 in1011.2 mb 0.00 in0.0 mm 0.00 in0.0 mm 0.00 in0.0 mm
08:20 PM 64.8°F18.2°C 46.4°F8.0°C 50% 3.8 mph E6.1 kmh E 3.8 mph6.1 kmh 29.86 in1011.2 mb 0.00 in0.0 mm 0.00 in0.0 mm 0.00 in0.0 mm
08:25 PM 64.6°F18.1°C 46.4°F8.0°C 50% 3.9 mph E6.3 kmh E 4.3 mph6.9 kmh 29.86 in1011.2 mb 0.00 in0.0 mm 0.00 in0.0 mm 0.00 in0.0 mm
08:30 PM 64.0°F17.8°C 46.4°F8.0°C 51% 3.9 mph SE6.3 kmh SE 4.3 mph6.9 kmh 29.86 in1011.2 mb 0.00 in0.0 mm 0.00 in0.0 mm 0.00 in0.0 mm
08:35 PM 63.9°F17.7°C 46.4°F8.0°C 51% 3.5 mph ESE5.6 kmh ESE 4.3 mph6.9 kmh 29.86 in1011.2 mb 0.00 in0.0 mm 0.00 in0.0 mm 0.00 in0.0 mm
08:40 PM 63.5°F17.5°C 46.4°F8.0°C 51% 3.0 mph E4.8 kmh E 4.3 mph6.9 kmh 29.86 in1011.2 mb 0.00 in0.0 mm 0.00 in0.0 mm 0.00 in0.0 mm
08:45 PM 63.5°F17.5°C 46.4°F8.0°C 52% 2.5 mph E4.0 kmh E 3.6 mph5.8 kmh 29.86 in1011.2 mb 0.00 in0.0 mm 0.00 in0.0 mm 0.00 in0.0 mm
08:50 PM 63.1°F17.3°C 46.4°F8.0°C 52% 2.9 mph NE4.7 kmh NE 3.6 mph5.8 kmh 29.86 in1011.2 mb 0.00 in0.0 mm 0.00 in0.0 mm 0.00 in0.0 mm
08:55 PM 63.0°F17.2°C 46.4°F8.0°C 52% 3.6 mph NE5.8 kmh NE 3.8 mph6.1 kmh 29.86 in1011.2 mb 0.00 in0.0 mm 0.00 in0.0 mm 0.00 in0.0 mm
09:00 PM 62.8°F17.1°C 46.4°F8.0°C 53% 3.7 mph E6.0 kmh E 3.8 mph6.1 kmh 29.86 in1011.2 mb 0.00 in0.0 mm 0.00 in0.0 mm 0.00 in0.0 mm
09:05 PM 62.6°F17.0°C 46.4°F8.0°C 53% 3.8 mph E6.1 kmh E 3.8 mph6.1 kmh 29.86 in1011.2 mb 0.00 in0.0 mm 0.00 in0.0 mm 0.00 in0.0 mm
09:10 PM 62.4°F16.9°C 46.4°F8.0°C 54% 3.1 mph E5.0 kmh E 3.8 mph6.1 kmh 29.86 in1011.2 mb 0.00 in0.0 mm 0.00 in0.0 mm 0.00 in0.0 mm
09:15 PM 62.2°F16.8°C 46.4°F8.0°C 55% 2.3 mph ENE3.7 kmh ENE 3.8 mph6.1 kmh 29.86 in1011.2 mb 0.00 in0.0 mm 0.00 in0.0 mm 0.00 in0.0 mm
09:20 PM 62.1°F16.7°C 46.4°F8.0°C 55% 1.8 mph E2.9 kmh E 2.9 mph4.7 kmh 29.86 in1011.2 mb 0.00 in0.0 mm 0.00 in0.0 mm 0.00 in0.0 mm
09:25 PM 61.9°F16.6°C 46.4°F8.0°C 55% 1.4 mph E2.3 kmh E 2.7 mph4.3 kmh 29.86 in1011.2 mb 0.00 in0.0 mm 0.00 in0.0 mm 0.00 in0.0 mm
09:30 PM 61.5°F16.4°C 44.6°F7.0°C 55% 1.3 mph ESE2.1 kmh ESE 2.7 mph4.3 kmh 29.86 in1011.2 mb 0.00 in0.0 mm 0.00 in0.0 mm 0.00 in0.0 mm
09:35 PM 61.2°F16.2°C 46.4°F8.0°C 56% 1.7 mph E2.7 kmh E 2.5 mph4.0 kmh 29.89 in1012.2 mb 0.00 in0.0 mm 0.00 in0.0 mm 0.00 in0.0 mm
09:40 PM 61.0°F16.1°C 44.6°F7.0°C 56% 2.2 mph ENE3.5 kmh ENE 2.7 mph4.3 kmh 29.89 in1012.2 mb 0.00 in0.0 mm 0.00 in0.0 mm 0.00 in0.0 mm
09:45 PM 61.0°F16.1°C 44.6°F7.0°C 56% 2.5 mph ENE4.0 kmh ENE 3.6 mph5.8 kmh 29.89 in1012.2 mb 0.00 in0.0 mm 0.00 in0.0 mm 0.00 in0.0 mm
09:50 PM 60.8°F16.0°C 46.4°F8.0°C 57% 2.4 mph NE3.9 kmh NE 3.6 mph5.8 kmh 29.89 in1012.2 mb 0.00 in0.0 mm 0.00 in0.0 mm 0.00 in0.0 mm
09:55 PM 60.4°F15.8°C 44.6°F7.0°C 57% 1.4 mph NE2.3 kmh NE 3.4 mph5.5 kmh 29.89 in1012.2 mb 0.00 in0.0 mm 0.00 in0.0 mm 0.00 in0.0 mm
10:00 PM 60.1°F15.6°C 46.4°F8.0°C 58% 0.3 mph NNE0.5 kmh NNE 1.3 mph2.1 kmh 29.89 in1012.2 mb 0.00 in0.0 mm 0.00 in0.0 mm 0.00 in0.0 mm
10:05 PM 59.7°F15.4°C 44.6°F7.0°C 58% 0.1 mph NE0.2 kmh NE 0.9 mph1.4 kmh 29.89 in1012.2 mb 0.00 in0.0 mm 0.00 in0.0 mm 0.00 in0.0 mm
10:10 PM 59.2°F15.1°C 44.6°F7.0°C 58% 0.7 mph NE1.1 kmh NE 2.5 mph4.0 kmh 29.89 in1012.2 mb 0.00 in0.0 mm 0.00 in0.0 mm 0.00 in0.0 mm
10:15 PM 59.2°F15.1°C 44.6°F7.0°C 59% 1.4 mph NE2.3 kmh NE 2.5 mph4.0 kmh 29.89 in1012.2 mb 0.00 in0.0 mm 0.00 in0.0 mm 0.00 in0.0 mm
10:20 PM 58.8°F14.9°C 44.6°F7.0°C 59% 0.9 mph NE1.4 kmh NE 2.5 mph4.0 kmh 29.89 in1012.2 mb 0.00 in0.0 mm 0.00 in0.0 mm 0.00 in0.0 mm
10:25 PM 58.6°F14.8°C 44.6°F7.0°C 59% 0.2 mph NNE0.3 kmh NNE 1.1 mph1.8 kmh 29.89 in1012.2 mb 0.00 in0.0 mm 0.00 in0.0 mm 0.00 in0.0 mm
10:30 PM 58.3°F14.6°C 44.6°F7.0°C 60% 0.4 mph N0.6 kmh N 1.1 mph1.8 kmh 29.89 in1012.2 mb 0.00 in0.0 mm 0.00 in0.0 mm 0.00 in0.0 mm
10:35 PM 57.9°F14.4°C 44.6°F7.0°C 60% 0.8 mph N1.3 kmh N 1.3 mph2.1 kmh 29.89 in1012.2 mb 0.00 in0.0 mm 0.00 in0.0 mm 0.00 in0.0 mm
10:40 PM 57.7°F14.3°C 44.6°F7.0°C 60% 1.0 mph N1.6 kmh N 1.3 mph2.1 kmh 29.89 in1012.2 mb 0.00 in0.0 mm 0.00 in0.0 mm 0.00 in0.0 mm
10:45 PM 57.7°F14.3°C 44.6°F7.0°C 61% 0.7 mph N1.1 kmh N 1.6 mph2.6 kmh 29.89 in1012.2 mb 0.00 in0.0 mm 0.00 in0.0 mm 0.00 in0.0 mm
10:50 PM 57.2°F14.0°C 44.6°F7.0°C 60% 1.0 mph NE1.6 kmh NE 2.5 mph4.0 kmh 29.89 in1012.2 mb 0.00 in0.0 mm 0.00 in0.0 mm 0.00 in0.0 mm
10:55 PM 57.4°F14.1°C 44.6°F7.0°C 61% 1.0 mph NE1.6 kmh NE 2.5 mph4.0 kmh 29.89 in1012.2 mb 0.00 in0.0 mm 0.00 in0.0 mm 0.00 in0.0 mm
11:00 PM 57.2°F14.0°C 44.6°F7.0°C 61% 1.1 mph NE1.8 kmh NE 2.5 mph4.0 kmh 29.89 in1012.2 mb 0.00 in0.0 mm 0.00 in0.0 mm 0.00 in0.0 mm
11:05 PM 57.0°F13.9°C 44.6°F7.0°C 61% 1.2 mph NE1.9 kmh NE 2.5 mph4.0 kmh 29.89 in1012.2 mb 0.00 in0.0 mm 0.00 in0.0 mm 0.00 in0.0 mm
11:10 PM 56.8°F13.8°C 44.6°F7.0°C 62% 0.7 mph NE1.1 kmh NE 1.1 mph1.8 kmh 29.89 in1012.2 mb 0.00 in0.0 mm 0.00 in0.0 mm 0.00 in0.0 mm
11:15 PM 56.7°F13.7°C 44.6°F7.0°C 62% 0.6 mph NE1.0 kmh NE 1.3 mph2.1 kmh 29.89 in1012.2 mb 0.00 in0.0 mm 0.00 in0.0 mm 0.00 in0.0 mm
11:20 PM 56.5°F13.6°C 44.6°F7.0°C 62% 0.7 mph NE1.1 kmh NE 1.3 mph2.1 kmh 29.89 in1012.2 mb 0.00 in0.0 mm 0.00 in0.0 mm 0.00 in0.0 mm
11:25 PM 56.1°F13.4°C 42.8°F6.0°C 62% 0.8 mph NNE1.3 kmh NNE 1.6 mph2.6 kmh 29.89 in1012.2 mb 0.00 in0.0 mm 0.00 in0.0 mm 0.00 in0.0 mm
11:30 PM 55.9°F13.3°C 42.8°F6.0°C 62% 0.7 mph NNE1.1 kmh NNE 1.6 mph2.6 kmh 29.89 in1012.2 mb 0.00 in0.0 mm 0.00 in0.0 mm 0.00 in0.0 mm
11:35 PM 55.9°F13.3°C 44.6°F7.0°C 63% 1.0 mph NE1.6 kmh NE 2.2 mph3.5 kmh 29.89 in1012.2 mb 0.00 in0.0 mm 0.00 in0.0 mm 0.00 in0.0 mm
11:40 PM 55.8°F13.2°C 44.6°F7.0°C 63% 1.1 mph NE1.8 kmh NE 2.2 mph3.5 kmh 29.89 in1012.2 mb 0.00 in0.0 mm 0.00 in0.0 mm 0.00 in0.0 mm
11:45 PM 55.6°F13.1°C 42.8°F6.0°C 63% 0.7 mph NE1.1 kmh NE 1.6 mph2.6 kmh 29.89 in1012.2 mb 0.00 in0.0 mm 0.00 in0.0 mm 0.00 in0.0 mm
11:50 PM 55.6°F13.1°C 42.8°F6.0°C 63% 0.6 mph NE1.0 kmh NE 1.6 mph2.6 kmh 29.89 in1012.2 mb 0.00 in0.0 mm 0.00 in0.0 mm 0.00 in0.0 mm
11:55 PM 55.6°F13.1°C 42.8°F6.0°C 63% 0.3 mph NE0.5 kmh NE 1.1 mph1.8 kmh 29.89 in1012.2 mb 0.00 in0.0 mm 0.00 in0.0 mm 0.00 in0.0 mm